createdAt,value
2023-03-05T00:01:40.976Z,99132.13
2023-03-05T00:04:14.079Z,99129.59
2023-03-05T00:06:43.287Z,99134.88
2023-03-05T00:09:12.066Z,99137.53
2023-03-05T00:11:40.819Z,99132.31
2023-03-05T00:14:09.608Z,99133.25
2023-03-05T00:16:38.358Z,99134.09
2023-03-05T00:19:07.812Z,99135.81
2023-03-05T00:21:39.283Z,99125.38
2023-03-05T00:24:11.753Z,99130.59
2023-03-05T00:26:40.807Z,99134.88
2023-03-05T00:29:10.500Z,99134.97
2023-03-05T00:31:39.701Z,99127.25
2023-03-05T00:34:13.220Z,99136.81
2023-03-05T00:36:45.042Z,99129.88
2023-03-05T00:39:13.937Z,99136.03
2023-03-05T00:41:42.745Z,99132.56
2023-03-05T00:44:11.635Z,99134.31
2023-03-05T00:46:41.244Z,99139.50
2023-03-05T00:49:10.041Z,99137.69
2023-03-05T00:51:38.733Z,99141.22
2023-03-05T00:54:09.364Z,99137.75
2023-03-05T00:56:38.211Z,99142.00
2023-03-05T00:59:07.143Z,99144.63
2023-03-05T01:01:36.112Z,99132.44
2023-03-05T01:04:05.546Z,99140.19
2023-03-05T01:06:34.215Z,99145.41
2023-03-05T01:09:03.339Z,99127.97
2023-03-05T01:11:33.337Z,99141.84
2023-03-05T01:14:02.094Z,99147.03
2023-03-05T01:16:31.315Z,99153.09
2023-03-05T01:18:59.948Z,99151.31
2023-03-05T01:21:30.115Z,99151.28
2023-03-05T01:23:59.001Z,99147.78
2023-03-05T01:26:27.800Z,99145.09
2023-03-05T01:28:57.981Z,99146.03
2023-03-05T01:31:27.514Z,99139.00
2023-03-05T01:33:56.561Z,99140.69
2023-03-05T01:36:25.420Z,99143.31
2023-03-05T01:38:54.322Z,99152.00
2023-03-05T01:41:23.077Z,99141.56
2023-03-05T01:43:52.920Z,99144.97
2023-03-05T01:46:40.595Z,99151.16
2023-03-05T01:49:18.413Z,99151.94
2023-03-05T01:51:55.151Z,99145.00
2023-03-05T01:54:27.706Z,99145.06
2023-03-05T01:56:59.678Z,99143.25
2023-03-05T01:59:29.437Z,99145.00
2023-03-05T02:02:00.516Z,99145.06
2023-03-05T02:04:35.709Z,99143.34
2023-03-05T02:07:04.856Z,99138.16
2023-03-05T02:09:33.450Z,99139.06
2023-03-05T02:12:02.073Z,99141.63
2023-03-05T02:14:30.782Z,99140.81
2023-03-05T02:17:01.229Z,99142.47
2023-03-05T02:19:29.935Z,99137.25
2023-03-05T02:21:59.977Z,99139.94
2023-03-05T02:24:37.351Z,99144.31
2023-03-05T02:27:06.934Z,99146.06
2023-03-05T02:29:38.713Z,99145.31
2023-03-05T02:32:08.701Z,99147.09
2023-03-05T02:34:37.859Z,99146.34
2023-03-05T02:37:09.490Z,99145.50
2023-03-05T02:39:39.797Z,99149.88
2023-03-05T02:42:09.027Z,99149.03
2023-03-05T02:44:38.630Z,99151.69
2023-03-05T02:47:07.638Z,99149.97
2023-03-05T02:49:37.237Z,99143.06
2023-03-05T02:52:06.414Z,99146.56
2023-03-05T02:54:36.477Z,99140.47
2023-03-05T02:57:05.663Z,99140.50
2023-03-05T02:59:34.329Z,99152.66
2023-03-05T03:02:03.808Z,99151.78
2023-03-05T03:04:32.539Z,99143.94
2023-03-05T03:07:01.079Z,99143.94
2023-03-05T03:09:29.765Z,99139.59
2023-03-05T03:11:59.812Z,99151.75
2023-03-05T03:14:28.611Z,99143.06
2023-03-05T03:16:57.282Z,99148.22
2023-03-05T03:19:25.929Z,99144.72
2023-03-05T03:21:55.219Z,99151.66
2023-03-05T03:24:24.076Z,99149.84
2023-03-05T03:26:52.820Z,99149.88
2023-03-05T03:29:23.018Z,99148.94
2023-03-05T03:31:51.816Z,99142.88
2023-03-05T03:34:21.532Z,99142.78
2023-03-05T03:36:51.327Z,99148.84
2023-03-05T03:39:20.762Z,99145.31
2023-03-05T03:41:51.789Z,99140.94
2023-03-05T03:44:23.166Z,99140.03
2023-03-05T03:46:54.385Z,99140.88
2023-03-05T03:49:25.031Z,99143.53
2023-03-05T03:51:55.627Z,99142.63
2023-03-05T03:54:24.454Z,99139.16
2023-03-05T03:56:53.671Z,99141.78
2023-03-05T03:59:24.274Z,99140.91
2023-03-05T04:01:53.089Z,99143.47
2023-03-05T04:04:21.973Z,99139.13
2023-03-05T04:06:50.639Z,99138.22
2023-03-05T04:09:19.277Z,99144.28
2023-03-05T04:11:47.850Z,99141.69
2023-03-05T04:14:16.464Z,99139.94
2023-03-05T04:16:46.540Z,99148.56
2023-03-05T04:19:15.270Z,99144.22
2023-03-05T04:21:44.013Z,99152.13
2023-03-05T04:24:12.664Z,99150.38
2023-03-05T04:26:41.366Z,99154.75
2023-03-05T04:29:10.083Z,99154.78
2023-03-05T04:31:38.877Z,99141.72
2023-03-05T04:34:08.821Z,99140.84
2023-03-05T04:36:37.733Z,99150.41
2023-03-05T04:39:06.457Z,99146.06
2023-03-05T04:41:35.092Z,99142.63
2023-03-05T04:44:03.882Z,99140.06
2023-03-05T04:46:32.862Z,99147.06
2023-03-05T04:49:01.630Z,99147.97
2023-03-05T04:51:31.767Z,99147.09
2023-03-05T04:54:00.443Z,99149.72
2023-03-05T04:56:29.057Z,99152.34
2023-03-05T04:58:57.738Z,99154.03
2023-03-05T05:01:26.460Z,99148.75
2023-03-05T05:03:55.197Z,99154.78
2023-03-05T05:06:23.948Z,99157.38
2023-03-05T05:08:54.036Z,99152.13
2023-03-05T05:11:22.793Z,99158.22
2023-03-05T05:13:51.561Z,99150.38
2023-03-05T05:16:20.389Z,99152.91
2023-03-05T05:18:49.391Z,99152.91
2023-03-05T05:21:18.756Z,99154.63
2023-03-05T05:23:47.581Z,99158.09
2023-03-05T05:26:17.661Z,99163.25
2023-03-05T05:28:46.462Z,99159.69
2023-03-05T05:31:17.293Z,99160.53
2023-03-05T05:33:49.406Z,99160.44
2023-03-05T05:36:21.665Z,99154.22
2023-03-05T05:38:50.822Z,99158.41
2023-03-05T05:41:21.125Z,99161.84
2023-03-05T05:43:50.047Z,99166.25
2023-03-05T05:46:20.894Z,99172.38
2023-03-05T05:48:49.844Z,99172.38
2023-03-05T05:51:20.338Z,99174.88
2023-03-05T05:53:49.081Z,99165.31
2023-03-05T05:56:18.580Z,99176.63
2023-03-05T05:58:49.485Z,99175.59
2023-03-05T06:01:20.988Z,99167.66
2023-03-05T06:03:49.694Z,99172.78
2023-03-05T06:06:21.720Z,99174.50
2023-03-05T06:08:51.130Z,99173.69
2023-03-05T06:11:20.702Z,99177.19
2023-03-05T06:13:50.909Z,99176.19
2023-03-05T06:16:22.075Z,99177.13
2023-03-05T06:18:51.164Z,99174.53
2023-03-05T06:21:21.956Z,99174.56
2023-03-05T06:23:51.598Z,99180.72
2023-03-05T06:26:23.357Z,99178.81
2023-03-05T06:28:53.635Z,99171.94
2023-03-05T06:31:25.644Z,99184.94
2023-03-05T06:33:56.845Z,99184.94
2023-03-05T06:36:26.796Z,99183.97
2023-03-05T06:38:55.866Z,99185.53
2023-03-05T06:41:26.161Z,99182.03
2023-03-05T06:43:57.317Z,99182.88
2023-03-05T06:46:28.182Z,99173.31
2023-03-05T06:48:59.010Z,99183.00
2023-03-05T06:51:29.965Z,99189.19
2023-03-05T06:54:01.989Z,99182.25
2023-03-05T06:56:30.855Z,99181.38
2023-03-05T06:59:00.967Z,99180.28
2023-03-05T07:01:29.831Z,99179.25
2023-03-05T07:04:00.475Z,99184.47
2023-03-05T07:06:29.839Z,99189.63
2023-03-05T07:08:58.697Z,99185.13
2023-03-05T07:11:27.396Z,99186.63
2023-03-05T07:13:56.258Z,99184.00
2023-03-05T07:16:28.388Z,99192.59
2023-03-05T07:18:58.499Z,99190.81
2023-03-05T07:21:29.332Z,99193.44
2023-03-05T07:24:00.291Z,99197.63
2023-03-05T07:26:29.111Z,99190.53
2023-03-05T07:28:58.008Z,99195.56
2023-03-05T07:31:31.163Z,99192.81
2023-03-05T07:34:01.162Z,99191.72
2023-03-05T07:36:31.497Z,99190.66
2023-03-05T07:39:00.245Z,99195.50
2023-03-05T07:41:29.042Z,99197.84
2023-03-05T07:43:57.830Z,99199.63
2023-03-05T07:46:30.545Z,99192.50
2023-03-05T07:48:59.317Z,99198.59
2023-03-05T07:51:28.765Z,99194.03
2023-03-05T07:53:59.508Z,99200.78
2023-03-05T07:56:31.908Z,99198.91
2023-03-05T07:59:01.428Z,99197.94
2023-03-05T08:01:32.358Z,99200.28
2023-03-05T08:04:01.331Z,99200.47
2023-03-05T08:06:30.202Z,99209.47
2023-03-05T08:08:59.951Z,99205.22
2023-03-05T08:11:29.566Z,99212.25
2023-03-05T08:13:59.593Z,99201.91
2023-03-05T08:16:28.900Z,99209.81
2023-03-05T08:18:59.785Z,99208.97
2023-03-05T08:21:30.863Z,99208.19
2023-03-05T08:23:59.635Z,99214.31
2023-03-05T08:26:30.438Z,99218.53
2023-03-05T08:28:59.557Z,99221.09
2023-03-05T08:31:30.291Z,99208.91
2023-03-05T08:34:02.356Z,99215.75
2023-03-05T08:36:31.708Z,99214.13
2023-03-05T08:39:00.754Z,99221.78
2023-03-05T08:41:29.740Z,99222.59
2023-03-05T08:43:58.425Z,99223.34
2023-03-05T08:46:27.114Z,99223.22
2023-03-05T08:48:55.912Z,99230.13
2023-03-05T08:51:27.761Z,99229.16
2023-03-05T08:53:59.325Z,99223.75
2023-03-05T08:56:31.177Z,99227.00
2023-03-05T08:58:59.984Z,99223.34
2023-03-05T09:01:28.896Z,99226.16
2023-03-05T09:03:57.881Z,99225.31
2023-03-05T09:06:29.394Z,99227.03
2023-03-05T09:08:58.224Z,99228.84
2023-03-05T09:11:27.106Z,99218.31
2023-03-05T09:13:55.844Z,99232.25
2023-03-05T09:16:24.609Z,99229.50
2023-03-05T09:18:53.386Z,99224.97
2023-03-05T09:21:22.244Z,99225.13
2023-03-05T09:23:52.296Z,99222.53
2023-03-05T09:26:21.345Z,99218.22
2023-03-05T09:28:50.153Z,99220.63
2023-03-05T09:31:19.390Z,99222.28
2023-03-05T09:33:49.169Z,99220.47
2023-03-05T09:36:21.265Z,99224.97
2023-03-05T09:38:50.961Z,99223.97
2023-03-05T09:41:37.040Z,99225.66
2023-03-05T09:44:13.144Z,99218.72
2023-03-05T09:46:52.244Z,99226.69
2023-03-05T09:49:31.852Z,99224.06
2023-03-05T09:52:04.217Z,99220.81
2023-03-05T09:54:39.514Z,99225.47
2023-03-05T09:57:17.496Z,99229.81
2023-03-05T09:59:51.145Z,99225.91
2023-03-05T10:02:24.348Z,99230.25
2023-03-05T10:04:58.445Z,99228.47
2023-03-05T10:07:31.140Z,99224.09
2023-03-05T10:10:02.220Z,99233.47
2023-03-05T10:12:42.596Z,99231.66
2023-03-05T10:15:16.854Z,99226.25
2023-03-05T10:17:55.238Z,99233.22
2023-03-05T10:20:36.781Z,99239.00
2023-03-05T10:23:37.883Z,99228.19
2023-03-05T10:26:16.980Z,99221.03
2023-03-05T10:28:56.131Z,99224.44
2023-03-05T10:31:38.362Z,99232.03
2023-03-05T10:34:30.888Z,99225.88
2023-03-05T10:37:24.448Z,99226.72
2023-03-05T10:40:00.914Z,99230.22
2023-03-05T10:42:38.504Z,99236.34
2023-03-05T10:45:16.391Z,99235.06
2023-03-05T10:47:50.941Z,99221.31
2023-03-05T10:50:22.726Z,99224.00
2023-03-05T10:53:01.381Z,99230.84
2023-03-05T10:55:30.257Z,99229.09
2023-03-05T10:57:59.003Z,99229.25
2023-03-05T11:00:29.969Z,99233.75
2023-03-05T11:03:01.526Z,99231.81
2023-03-05T11:05:48.768Z,99232.41
2023-03-05T11:08:28.098Z,99228.81
2023-03-05T11:11:12.636Z,99232.16
2023-03-05T11:13:52.393Z,99226.00
2023-03-05T11:16:24.830Z,99230.16
2023-03-05T11:19:19.151Z,99233.19
2023-03-05T11:22:05.735Z,99228.88
2023-03-05T11:24:34.941Z,99235.47
2023-03-05T11:27:03.780Z,99234.59
2023-03-05T11:29:35.077Z,99230.03
2023-03-05T11:32:21.935Z,99237.84
2023-03-05T11:34:51.304Z,99237.84
2023-03-05T11:37:27.994Z,99238.78
2023-03-05T11:40:21.130Z,99238.16
2023-03-05T11:42:56.755Z,99235.56
2023-03-05T11:45:27.094Z,99232.94
2023-03-05T11:48:01.633Z,99238.09
2023-03-05T11:50:32.313Z,99233.94
2023-03-05T11:53:06.936Z,99236.59
2023-03-05T11:55:38.881Z,99234.81
2023-03-05T11:58:25.162Z,99242.38
2023-03-05T12:00:54.240Z,99227.34
2023-03-05T12:03:27.110Z,99242.31
2023-03-05T12:06:11.056Z,99234.50
2023-03-05T12:08:43.724Z,99237.34
2023-03-05T12:11:18.373Z,99239.88
2023-03-05T12:13:52.140Z,99242.34
2023-03-05T12:16:30.657Z,99227.63
2023-03-05T12:19:20.273Z,99242.50
2023-03-05T12:21:52.213Z,99243.59
2023-03-05T12:24:39.628Z,99242.00
2023-03-05T12:27:15.001Z,99241.25
2023-03-05T12:29:46.830Z,99249.94
2023-03-05T12:34:48.544Z,99242.19
2023-03-05T12:37:52.028Z,99245.44
2023-03-05T12:40:25.182Z,99245.34
2023-03-05T12:42:54.729Z,99242.72
2023-03-05T12:45:34.903Z,99241.00
2023-03-05T12:48:39.887Z,99243.75
2023-03-05T12:51:13.726Z,99248.28
2023-03-05T12:53:41.904Z,99246.59
2023-03-05T12:56:21.234Z,99252.81
2023-03-05T12:58:53.798Z,99254.03
2023-03-05T13:01:41.462Z,99252.66
2023-03-05T13:04:17.602Z,99258.94
2023-03-05T13:06:47.074Z,99258.47
2023-03-05T13:09:21.068Z,99262.06
2023-03-05T13:11:53.002Z,99262.31
2023-03-05T13:14:42.479Z,99258.19
2023-03-05T13:17:29.463Z,99264.38
2023-03-05T13:19:58.091Z,99260.13
2023-03-05T13:22:28.203Z,99264.72
2023-03-05T13:25:16.669Z,99268.47
2023-03-05T13:27:44.976Z,99265.09
2023-03-05T13:30:22.852Z,99270.47
2023-03-05T13:32:53.139Z,99270.66
2023-03-05T13:35:22.632Z,99269.00
2023-03-05T13:37:52.237Z,99261.34
2023-03-05T13:40:23.558Z,99271.88
2023-03-05T13:42:53.350Z,99263.28
2023-03-05T13:45:27.846Z,99270.28
2023-03-05T13:47:57.893Z,99268.66
2023-03-05T13:50:29.376Z,99266.03
2023-03-05T13:53:16.851Z,99269.72
2023-03-05T13:55:45.140Z,99267.19
2023-03-05T13:58:47.367Z,99267.28
2023-03-05T14:01:25.419Z,99265.72
2023-03-05T14:03:57.217Z,99271.75
2023-03-05T14:06:27.905Z,99282.28
2023-03-05T14:09:03.825Z,99278.88
2023-03-05T14:11:32.384Z,99282.38
2023-03-05T14:14:07.715Z,99278.91
2023-03-05T14:16:35.915Z,99280.75
2023-03-05T14:19:07.303Z,99277.31
2023-03-05T14:21:47.102Z,99280.13
2023-03-05T14:24:22.443Z,99281.22
2023-03-05T14:26:52.983Z,99283.09
2023-03-05T14:29:24.261Z,99276.06
2023-03-05T14:31:54.660Z,99276.06
2023-03-05T14:34:30.009Z,99281.34
2023-03-05T14:37:03.223Z,99277.84
2023-03-05T14:39:40.012Z,99277.94
2023-03-05T14:42:33.267Z,99277.09
2023-03-05T14:45:03.017Z,99273.63
2023-03-05T14:47:31.394Z,99289.31
2023-03-05T14:49:59.508Z,99284.09
2023-03-05T14:52:28.325Z,99285.09
2023-03-05T14:54:57.812Z,99289.50
2023-03-05T14:57:28.447Z,99293.09
2023-03-05T14:59:56.701Z,99291.41
2023-03-05T15:02:27.558Z,99294.94
2023-03-05T15:04:55.853Z,99294.94
2023-03-05T15:07:27.636Z,99294.06
2023-03-05T15:09:57.101Z,99300.09
2023-03-05T15:12:25.470Z,99295.75
2023-03-05T15:14:54.089Z,99295.72
2023-03-05T15:17:25.262Z,99292.16
2023-03-05T15:19:53.914Z,99295.59
2023-03-05T15:22:22.010Z,99291.25
2023-03-05T15:24:50.005Z,99291.19
2023-03-05T15:27:19.549Z,99295.53
2023-03-05T15:29:47.548Z,99294.66
2023-03-05T15:32:15.585Z,99306.84
2023-03-05T15:34:43.765Z,99300.78
2023-03-05T15:37:12.018Z,99309.59
2023-03-05T15:39:43.337Z,99300.06
2023-03-05T15:42:11.547Z,99303.59
2023-03-05T15:44:41.089Z,99319.34
2023-03-05T15:47:09.667Z,99303.75
2023-03-05T15:49:37.656Z,99309.00
2023-03-05T15:52:05.741Z,99305.53
2023-03-05T15:54:33.796Z,99319.53
2023-03-05T15:57:01.741Z,99310.84
2023-03-05T15:59:29.792Z,99310.88
2023-03-05T16:01:59.259Z,99313.53
2023-03-05T16:04:28.706Z,99314.47
2023-03-05T16:06:59.016Z,99305.00
2023-03-05T16:09:30.073Z,99313.72
2023-03-05T16:11:58.323Z,99318.19
2023-03-05T16:14:28.885Z,99314.81
2023-03-05T16:17:03.269Z,99316.63
2023-03-05T16:19:33.209Z,99321.94
2023-03-05T16:22:01.336Z,99320.22
2023-03-05T16:24:29.433Z,99323.69
2023-03-05T16:26:57.503Z,99326.31
2023-03-05T16:29:25.963Z,99324.56
2023-03-05T16:31:53.876Z,99324.53
2023-03-05T16:34:23.317Z,99319.31
2023-03-05T16:36:53.008Z,99325.41
2023-03-05T16:39:22.406Z,99322.72
2023-03-05T16:41:52.673Z,99324.47
2023-03-05T16:44:21.446Z,99328.84
2023-03-05T16:46:53.971Z,99322.81
2023-03-05T16:49:24.058Z,99324.66
2023-03-05T16:51:52.244Z,99323.78
2023-03-05T16:54:21.954Z,99325.59
2023-03-05T16:56:50.105Z,99331.66
2023-03-05T16:59:18.235Z,99324.88
2023-03-05T17:01:46.748Z,99332.72
2023-03-05T17:04:14.990Z,99325.81
2023-03-05T17:06:47.414Z,99325.84
2023-03-05T17:09:15.612Z,99330.19
2023-03-05T17:11:43.604Z,99322.44
2023-03-05T17:14:11.620Z,99329.38
2023-03-05T17:16:39.801Z,99325.97
2023-03-05T17:19:07.844Z,99320.78
2023-03-05T17:21:35.895Z,99322.50
2023-03-05T17:24:05.558Z,99328.63
2023-03-05T17:26:36.361Z,99329.53
2023-03-05T17:29:04.612Z,99325.13
2023-03-05T17:31:33.452Z,99326.88
2023-03-05T17:34:01.612Z,99319.97
2023-03-05T17:36:30.783Z,99321.72
2023-03-05T17:38:59.357Z,99320.00
2023-03-05T17:41:28.909Z,99328.69
2023-03-05T17:43:56.886Z,99325.31
2023-03-05T17:46:25.059Z,99327.97
2023-03-05T17:48:53.340Z,99333.22
2023-03-05T17:51:21.539Z,99322.84
2023-03-05T17:53:49.510Z,99331.56
2023-03-05T17:56:20.450Z,99322.06
2023-03-05T17:58:50.316Z,99322.03
2023-03-05T18:01:26.272Z,99322.00
2023-03-05T18:03:55.421Z,99319.41
2023-03-05T18:06:24.169Z,99317.66
2023-03-05T18:08:52.526Z,99318.53
2023-03-05T18:11:20.742Z,99317.69
2023-03-05T18:13:50.327Z,99316.84
2023-03-05T18:16:18.578Z,99309.94
2023-03-05T18:18:46.796Z,99310.84
2023-03-05T18:21:20.256Z,99320.41
2023-03-05T18:23:48.272Z,99317.78
2023-03-05T18:26:16.356Z,99319.53
2023-03-05T18:28:44.635Z,99326.53
2023-03-05T18:31:14.165Z,99329.22
2023-03-05T18:33:43.994Z,99318.03
2023-03-05T18:36:12.299Z,99325.13
2023-03-05T18:38:40.463Z,99320.88
2023-03-05T18:41:08.685Z,99323.53
2023-03-05T18:43:36.918Z,99321.88
2023-03-05T18:46:06.049Z,99313.25
2023-03-05T18:48:35.625Z,99322.88
2023-03-05T18:51:04.126Z,99326.38
2023-03-05T18:53:32.460Z,99325.56
2023-03-05T18:56:01.716Z,99326.47
2023-03-05T18:58:29.743Z,99322.16
2023-03-05T19:00:57.726Z,99324.81
2023-03-05T19:03:25.856Z,99323.06
2023-03-05T19:05:58.438Z,99326.56
2023-03-05T19:08:26.512Z,99324.88
2023-03-05T19:10:54.613Z,99320.53
2023-03-05T19:13:34.812Z,99311.06
2023-03-05T19:16:08.905Z,99318.84
2023-03-05T19:18:43.937Z,99319.72
2023-03-05T19:21:13.648Z,99317.09
2023-03-05T19:23:41.762Z,99317.13
2023-03-05T19:26:09.865Z,99328.44
2023-03-05T19:28:37.845Z,99316.34
2023-03-05T19:31:06.217Z,99325.03
2023-03-05T19:33:34.270Z,99318.97
2023-03-05T19:36:04.751Z,99312.94
2023-03-05T19:38:34.374Z,99317.28
2023-03-05T19:41:02.579Z,99315.59
2023-03-05T19:43:30.637Z,99319.06
2023-03-05T19:46:01.815Z,99315.59
2023-03-05T19:48:30.221Z,99312.13
2023-03-05T19:50:58.342Z,99319.09
2023-03-05T19:53:27.085Z,99316.50
2023-03-05T19:55:56.757Z,99315.66
2023-03-05T19:58:24.833Z,99314.75
2023-03-05T20:00:52.834Z,99309.56
2023-03-05T20:03:20.871Z,99316.47
2023-03-05T20:05:48.966Z,99310.41
2023-03-05T20:08:17.023Z,99318.19
2023-03-05T20:10:45.095Z,99313.91
2023-03-05T20:13:14.513Z,99307.81
2023-03-05T20:15:42.698Z,99315.59
2023-03-05T20:18:10.831Z,99313.88
2023-03-05T20:20:38.902Z,99313.84
2023-03-05T20:23:06.945Z,99310.38
2023-03-05T20:25:35.024Z,99310.38
2023-03-05T20:28:03.170Z,99311.25
2023-03-05T20:30:32.520Z,99312.97
2023-03-05T20:33:00.412Z,99307.75
2023-03-05T20:35:28.607Z,99310.34
2023-03-05T20:38:20.857Z,99301.69
2023-03-05T20:40:50.028Z,99305.97
2023-03-05T20:43:18.442Z,99302.53
2023-03-05T20:45:48.272Z,99311.19
2023-03-05T20:48:16.424Z,99314.66
2023-03-05T20:50:46.700Z,99302.53
2023-03-05T20:53:15.077Z,99307.69
2023-03-05T20:55:43.625Z,99308.56
2023-03-05T20:58:12.113Z,99311.13
2023-03-05T21:00:41.371Z,99309.44
2023-03-05T21:03:10.945Z,99302.50
2023-03-05T21:05:39.049Z,99300.78
2023-03-05T21:08:07.018Z,99299.03
2023-03-05T21:10:35.036Z,99302.50
2023-03-05T21:13:03.016Z,99297.34
2023-03-05T21:15:31.890Z,99290.38
2023-03-05T21:18:00.008Z,99293.84
2023-03-05T21:20:30.806Z,99296.44
2023-03-05T21:22:59.644Z,99302.53
2023-03-05T21:25:29.567Z,99301.66
2023-03-05T21:28:00.149Z,99304.25
2023-03-05T21:30:31.561Z,99291.28
2023-03-05T21:33:00.705Z,99299.94
2023-03-05T21:35:32.549Z,99300.81
2023-03-05T21:38:01.277Z,99293.03
2023-03-05T21:40:29.734Z,99293.06
2023-03-05T21:42:57.824Z,99293.94
2023-03-05T21:45:28.101Z,99298.25
2023-03-05T21:47:58.685Z,99299.16
2023-03-05T21:50:27.755Z,99291.38
2023-03-05T21:52:57.084Z,99294.84
2023-03-05T21:55:32.329Z,99297.44
2023-03-05T21:58:00.715Z,99292.25
2023-03-05T22:00:29.592Z,99300.06
2023-03-05T22:02:57.585Z,99299.19
2023-03-05T22:05:25.734Z,99306.13
2023-03-05T22:07:53.898Z,99294.88
2023-03-05T22:10:23.795Z,99291.44
2023-03-05T22:12:57.121Z,99301.84
2023-03-05T22:15:26.829Z,99295.75
2023-03-05T22:17:54.825Z,99295.78
2023-03-05T22:20:22.964Z,99293.19
2023-03-05T22:22:51.025Z,99300.09
2023-03-05T22:25:19.147Z,99294.91
2023-03-05T22:27:48.542Z,99294.94
2023-03-05T22:30:16.643Z,99301.00
2023-03-05T22:32:44.617Z,99289.72
2023-03-05T22:35:14.398Z,99290.63
2023-03-05T22:37:43.270Z,99282.81
2023-03-05T22:40:16.510Z,99284.56
2023-03-05T22:42:45.325Z,99293.25
2023-03-05T22:45:17.968Z,99292.34
2023-03-05T22:47:48.440Z,99289.78
2023-03-05T22:50:16.602Z,99288.91
2023-03-05T22:52:44.627Z,99289.78
2023-03-05T22:55:14.363Z,99292.38
2023-03-05T22:57:43.849Z,99290.63
2023-03-05T23:00:17.456Z,99288.91
2023-03-05T23:02:46.312Z,99291.50
2023-03-05T23:05:14.418Z,99293.22
2023-03-05T23:07:43.763Z,99289.78
2023-03-05T23:10:15.756Z,99287.16
2023-03-05T23:12:46.300Z,99284.56
2023-03-05T23:15:18.718Z,99280.22
2023-03-05T23:17:47.004Z,99282.81
2023-03-05T23:20:16.987Z,99276.75
2023-03-05T23:22:46.181Z,99272.41
2023-03-05T23:25:16.101Z,99274.16
2023-03-05T23:27:44.399Z,99274.16
2023-03-05T23:30:20.675Z,99272.44
2023-03-05T23:32:51.773Z,99269.81
2023-03-05T23:35:22.601Z,99270.69
2023-03-05T23:37:50.876Z,99272.38
2023-03-05T23:40:23.110Z,99271.50
2023-03-05T23:42:51.411Z,99273.22
2023-03-05T23:45:22.213Z,99280.09
2023-03-05T23:47:51.248Z,99276.66
2023-03-05T23:50:22.130Z,99273.19
2023-03-05T23:52:51.221Z,99273.19
2023-03-05T23:55:22.041Z,99268.88
2023-03-05T23:57:50.240Z,99274.91
